sensor_id;sensor_type;location;lat;lon;timestamp;temperature;humidity
32534;DHT22;18973;48.580;8.912;2024-02-15T00:02:20;10.30;99.90
32534;DHT22;18973;48.580;8.912;2024-02-15T00:04:46;10.20;99.90
32534;DHT22;18973;48.580;8.912;2024-02-15T00:07:11;10.20;99.90
32534;DHT22;18973;48.580;8.912;2024-02-15T00:09:37;10.20;99.90
32534;DHT22;18973;48.580;8.912;2024-02-15T00:12:03;10.20;99.90
32534;DHT22;18973;48.580;8.912;2024-02-15T00:14:29;10.20;99.90
32534;DHT22;18973;48.580;8.912;2024-02-15T00:16:55;10.10;99.90
32534;DHT22;18973;48.580;8.912;2024-02-15T00:19:20;10.10;99.90
32534;DHT22;18973;48.580;8.912;2024-02-15T00:21:47;10.10;99.90
32534;DHT22;18973;48.580;8.912;2024-02-15T00:24:13;10.10;99.90
32534;DHT22;18973;48.580;8.912;2024-02-15T00:26:40;10.20;99.90
32534;DHT22;18973;48.580;8.912;2024-02-15T00:29:08;10.20;99.90
32534;DHT22;18973;48.580;8.912;2024-02-15T00:31:34;10.20;99.90
32534;DHT22;18973;48.580;8.912;2024-02-15T00:34:01;10.30;99.90
32534;DHT22;18973;48.580;8.912;2024-02-15T00:36:28;10.20;99.90
32534;DHT22;18973;48.580;8.912;2024-02-15T00:38:55;10.30;99.90
32534;DHT22;18973;48.580;8.912;2024-02-15T00:41:21;10.20;99.90
32534;DHT22;18973;48.580;8.912;2024-02-15T00:43:47;10.30;99.90
32534;DHT22;18973;48.580;8.912;2024-02-15T00:46:13;10.20;99.90
32534;DHT22;18973;48.580;8.912;2024-02-15T00:48:39;10.10;99.90
32534;DHT22;18973;48.580;8.912;2024-02-15T00:51:06;10.10;99.90
32534;DHT22;18973;48.580;8.912;2024-02-15T00:53:31;10.00;99.90
32534;DHT22;18973;48.580;8.912;2024-02-15T00:55:57;10.00;99.90
32534;DHT22;18973;48.580;8.912;2024-02-15T00:58:23;10.10;99.90
32534;DHT22;18973;48.580;8.912;2024-02-15T01:00:49;10.10;99.90
32534;DHT22;18973;48.580;8.912;2024-02-15T01:03:15;10.10;99.90
32534;DHT22;18973;48.580;8.912;2024-02-15T01:05:42;10.00;99.90
32534;DHT22;18973;48.580;8.912;2024-02-15T01:08:07;10.10;99.90
32534;DHT22;18973;48.580;8.912;2024-02-15T01:10:34;10.00;99.90
32534;DHT22;18973;48.580;8.912;2024-02-15T01:13:00;10.00;99.90
32534;DHT22;18973;48.580;8.912;2024-02-15T01:15:26;9.80;99.90
32534;DHT22;18973;48.580;8.912;2024-02-15T01:17:52;9.70;99.90
32534;DHT22;18973;48.580;8.912;2024-02-15T01:20:18;9.60;99.90
32534;DHT22;18973;48.580;8.912;2024-02-15T01:22:43;9.60;99.90
32534;DHT22;18973;48.580;8.912;2024-02-15T01:25:10;9.50;99.90
32534;DHT22;18973;48.580;8.912;2024-02-15T01:27:36;9.50;99.90
32534;DHT22;18973;48.580;8.912;2024-02-15T01:30:02;9.60;99.90
32534;DHT22;18973;48.580;8.912;2024-02-15T01:32:29;9.50;99.90
32534;DHT22;18973;48.580;8.912;2024-02-15T01:34:56;9.50;99.90
32534;DHT22;18973;48.580;8.912;2024-02-15T01:37:22;9.60;99.90
32534;DHT22;18973;48.580;8.912;2024-02-15T01:39:48;9.40;99.90
32534;DHT22;18973;48.580;8.912;2024-02-15T01:42:14;9.30;99.90
32534;DHT22;18973;48.580;8.912;2024-02-15T01:44:43;9.10;99.90
32534;DHT22;18973;48.580;8.912;2024-02-15T01:47:13;9.10;99.90
32534;DHT22;18973;48.580;8.912;2024-02-15T01:49:39;9.00;99.90
32534;DHT22;18973;48.580;8.912;2024-02-15T01:52:07;9.00;99.90
32534;DHT22;18973;48.580;8.912;2024-02-15T01:54:36;9.00;99.90
32534;DHT22;18973;48.580;8.912;2024-02-15T01:57:04;9.00;99.90
32534;DHT22;18973;48.580;8.912;2024-02-15T01:59:31;8.80;99.90
32534;DHT22;18973;48.580;8.912;2024-02-15T02:01:57;8.70;99.90
32534;DHT22;18973;48.580;8.912;2024-02-15T02:04:23;8.60;99.90
32534;DHT22;18973;48.580;8.912;2024-02-15T02:06:48;8.70;99.90
32534;DHT22;18973;48.580;8.912;2024-02-15T02:09:14;8.70;99.90
32534;DHT22;18973;48.580;8.912;2024-02-15T02:11:42;8.70;99.90
32534;DHT22;18973;48.580;8.912;2024-02-15T02:14:10;8.80;99.90
32534;DHT22;18973;48.580;8.912;2024-02-15T02:16:37;8.80;99.90
32534;DHT22;18973;48.580;8.912;2024-02-15T02:19:04;8.80;99.90
32534;DHT22;18973;48.580;8.912;2024-02-15T02:21:35;8.70;99.90
32534;DHT22;18973;48.580;8.912;2024-02-15T02:24:03;8.60;99.90
32534;DHT22;18973;48.580;8.912;2024-02-15T02:26:34;8.50;99.90
32534;DHT22;18973;48.580;8.912;2024-02-15T02:29:00;8.50;99.90
32534;DHT22;18973;48.580;8.912;2024-02-15T02:31:33;8.50;99.90
32534;DHT22;18973;48.580;8.912;2024-02-15T02:34:00;8.50;99.90
32534;DHT22;18973;48.580;8.912;2024-02-15T02:36:26;8.40;99.90
32534;DHT22;18973;48.580;8.912;2024-02-15T02:38:52;8.50;99.90
32534;DHT22;18973;48.580;8.912;2024-02-15T02:41:18;8.50;99.90
32534;DHT22;18973;48.580;8.912;2024-02-15T02:43:47;8.40;99.90
32534;DHT22;18973;48.580;8.912;2024-02-15T02:46:12;8.30;99.90
32534;DHT22;18973;48.580;8.912;2024-02-15T02:48:39;8.30;99.90
32534;DHT22;18973;48.580;8.912;2024-02-15T02:51:05;8.30;99.90
32534;DHT22;18973;48.580;8.912;2024-02-15T02:53:31;8.20;99.90
32534;DHT22;18973;48.580;8.912;2024-02-15T02:55:57;8.20;99.90
32534;DHT22;18973;48.580;8.912;2024-02-15T02:58:23;8.20;99.90
32534;DHT22;18973;48.580;8.912;2024-02-15T03:00:49;8.30;99.90
32534;DHT22;18973;48.580;8.912;2024-02-15T03:03:16;8.30;99.90
32534;DHT22;18973;48.580;8.912;2024-02-15T03:05:41;8.30;99.90
32534;DHT22;18973;48.580;8.912;2024-02-15T03:08:14;8.20;99.90
32534;DHT22;18973;48.580;8.912;2024-02-15T03:10:40;8.10;99.90
32534;DHT22;18973;48.580;8.912;2024-02-15T03:13:06;8.10;99.90
32534;DHT22;18973;48.580;8.912;2024-02-15T03:15:37;8.10;99.90
32534;DHT22;18973;48.580;8.912;2024-02-15T03:18:03;8.10;99.90
32534;DHT22;18973;48.580;8.912;2024-02-15T03:20:32;8.10;99.90
32534;DHT22;18973;48.580;8.912;2024-02-15T03:23:00;8.10;99.90
32534;DHT22;18973;48.580;8.912;2024-02-15T03:25:27;8.20;99.90
32534;DHT22;18973;48.580;8.912;2024-02-15T03:27:56;8.20;99.90
32534;DHT22;18973;48.580;8.912;2024-02-15T03:30:23;8.20;99.90
32534;DHT22;18973;48.580;8.912;2024-02-15T03:32:50;8.20;99.90
32534;DHT22;18973;48.580;8.912;2024-02-15T03:35:20;8.20;99.90
32534;DHT22;18973;48.580;8.912;2024-02-15T03:37:46;8.20;99.90
32534;DHT22;18973;48.580;8.912;2024-02-15T03:40:11;8.20;99.90
32534;DHT22;18973;48.580;8.912;2024-02-15T03:42:37;8.20;99.90
32534;DHT22;18973;48.580;8.912;2024-02-15T03:45:06;8.20;99.90
32534;DHT22;18973;48.580;8.912;2024-02-15T03:47:32;8.20;99.90
32534;DHT22;18973;48.580;8.912;2024-02-15T03:50:02;8.20;99.90
32534;DHT22;18973;48.580;8.912;2024-02-15T03:52:28;8.10;99.90
32534;DHT22;18973;48.580;8.912;2024-02-15T03:54:57;8.10;99.90
32534;DHT22;18973;48.580;8.912;2024-02-15T03:57:24;7.90;99.90
32534;DHT22;18973;48.580;8.912;2024-02-15T03:59:49;7.90;99.90
32534;DHT22;18973;48.580;8.912;2024-02-15T04:02:20;7.90;99.90
32534;DHT22;18973;48.580;8.912;2024-02-15T04:04:46;7.90;99.90
32534;DHT22;18973;48.580;8.912;2024-02-15T04:07:15;8.00;99.90
32534;DHT22;18973;48.580;8.912;2024-02-15T04:09:45;8.00;99.90
32534;DHT22;18973;48.580;8.912;2024-02-15T04:12:11;8.00;99.90
32534;DHT22;18973;48.580;8.912;2024-02-15T04:14:38;8.00;99.90
32534;DHT22;18973;48.580;8.912;2024-02-15T04:17:07;8.00;99.90
32534;DHT22;18973;48.580;8.912;2024-02-15T04:19:33;8.00;99.90
32534;DHT22;18973;48.580;8.912;2024-02-15T04:21:59;7.90;99.90
32534;DHT22;18973;48.580;8.912;2024-02-15T04:24:26;7.90;99.90
32534;DHT22;18973;48.580;8.912;2024-02-15T04:26:52;7.90;99.90
32534;DHT22;18973;48.580;8.912;2024-02-15T04:29:18;8.00;99.90
32534;DHT22;18973;48.580;8.912;2024-02-15T04:31:46;7.90;99.90
32534;DHT22;18973;48.580;8.912;2024-02-15T04:34:17;8.00;99.90
32534;DHT22;18973;48.580;8.912;2024-02-15T04:36:47;8.10;99.90
32534;DHT22;18973;48.580;8.912;2024-02-15T04:39:17;8.10;99.90
32534;DHT22;18973;48.580;8.912;2024-02-15T04:41:53;8.10;99.90
32534;DHT22;18973;48.580;8.912;2024-02-15T04:44:19;8.10;99.90
32534;DHT22;18973;48.580;8.912;2024-02-15T04:46:52;8.30;99.90
32534;DHT22;18973;48.580;8.912;2024-02-15T04:49:18;8.20;99.90
32534;DHT22;18973;48.580;8.912;2024-02-15T04:51:47;8.00;99.90
32534;DHT22;18973;48.580;8.912;2024-02-15T04:54:15;7.90;99.90
32534;DHT22;18973;48.580;8.912;2024-02-15T04:56:44;8.00;99.90
32534;DHT22;18973;48.580;8.912;2024-02-15T04:59:11;8.00;99.90
32534;DHT22;18973;48.580;8.912;2024-02-15T05:01:40;8.10;99.90
32534;DHT22;18973;48.580;8.912;2024-02-15T05:04:09;8.20;99.90
32534;DHT22;18973;48.580;8.912;2024-02-15T05:06:35;8.20;99.90
32534;DHT22;18973;48.580;8.912;2024-02-15T05:09:03;8.10;99.90
32534;DHT22;18973;48.580;8.912;2024-02-15T05:11:38;8.00;99.90
32534;DHT22;18973;48.580;8.912;2024-02-15T05:14:07;7.90;99.90
32534;DHT22;18973;48.580;8.912;2024-02-15T05:16:36;8.00;99.90
32534;DHT22;18973;48.580;8.912;2024-02-15T05:19:08;8.00;99.90
32534;DHT22;18973;48.580;8.912;2024-02-15T05:21:37;8.10;99.90
32534;DHT22;18973;48.580;8.912;2024-02-15T05:24:04;8.10;99.90
32534;DHT22;18973;48.580;8.912;2024-02-15T05:26:29;7.90;99.90
32534;DHT22;18973;48.580;8.912;2024-02-15T05:28:55;7.80;99.90
32534;DHT22;18973;48.580;8.912;2024-02-15T05:31:21;7.90;99.90
32534;DHT22;18973;48.580;8.912;2024-02-15T05:33:51;7.90;99.90
32534;DHT22;18973;48.580;8.912;2024-02-15T05:36:18;7.90;99.90
32534;DHT22;18973;48.580;8.912;2024-02-15T05:38:51;7.80;99.90
32534;DHT22;18973;48.580;8.912;2024-02-15T05:41:17;7.70;99.90
32534;DHT22;18973;48.580;8.912;2024-02-15T05:43:43;7.70;99.90
32534;DHT22;18973;48.580;8.912;2024-02-15T05:46:09;7.80;99.90
32534;DHT22;18973;48.580;8.912;2024-02-15T05:48:36;7.80;99.90
32534;DHT22;18973;48.580;8.912;2024-02-15T05:51:06;7.80;99.90
32534;DHT22;18973;48.580;8.912;2024-02-15T05:53:33;7.60;99.90
32534;DHT22;18973;48.580;8.912;2024-02-15T05:56:03;7.40;99.90
32534;DHT22;18973;48.580;8.912;2024-02-15T05:58:32;7.30;99.90
32534;DHT22;18973;48.580;8.912;2024-02-15T06:00:59;7.40;99.90
32534;DHT22;18973;48.580;8.912;2024-02-15T06:03:37;7.20;99.90
32534;DHT22;18973;48.580;8.912;2024-02-15T06:06:04;7.20;99.90
32534;DHT22;18973;48.580;8.912;2024-02-15T06:08:37;7.30;99.90
32534;DHT22;18973;48.580;8.912;2024-02-15T06:11:03;7.10;99.90
32534;DHT22;18973;48.580;8.912;2024-02-15T06:13:31;7.20;99.90
32534;DHT22;18973;48.580;8.912;2024-02-15T06:15:57;7.20;99.90
32534;DHT22;18973;48.580;8.912;2024-02-15T06:18:28;7.20;99.90
32534;DHT22;18973;48.580;8.912;2024-02-15T06:20:57;7.20;99.90
32534;DHT22;18973;48.580;8.912;2024-02-15T06:23:24;7.20;99.90
32534;DHT22;18973;48.580;8.912;2024-02-15T06:25:52;7.10;99.90
32534;DHT22;18973;48.580;8.912;2024-02-15T06:28:26;7.20;99.90
32534;DHT22;18973;48.580;8.912;2024-02-15T06:31:11;7.20;99.90
32534;DHT22;18973;48.580;8.912;2024-02-15T06:33:56;7.20;99.90
32534;DHT22;18973;48.580;8.912;2024-02-15T06:36:47;7.10;99.90
32534;DHT22;18973;48.580;8.912;2024-02-15T06:39:32;7.10;99.90
32534;DHT22;18973;48.580;8.912;2024-02-15T06:42:14;7.20;99.90
32534;DHT22;18973;48.580;8.912;2024-02-15T06:44:46;7.30;99.90
32534;DHT22;18973;48.580;8.912;2024-02-15T06:47:12;7.20;99.90
32534;DHT22;18973;48.580;8.912;2024-02-15T06:49:41;7.10;99.90
32534;DHT22;18973;48.580;8.912;2024-02-15T06:52:07;7.20;99.90
32534;DHT22;18973;48.580;8.912;2024-02-15T06:54:37;7.00;99.90
32534;DHT22;18973;48.580;8.912;2024-02-15T06:57:04;7.00;99.90
32534;DHT22;18973;48.580;8.912;2024-02-15T06:59:30;7.10;99.90
32534;DHT22;18973;48.580;8.912;2024-02-15T07:02:01;7.20;99.90
32534;DHT22;18973;48.580;8.912;2024-02-15T07:04:28;7.40;99.90
32534;DHT22;18973;48.580;8.912;2024-02-15T07:06:54;7.20;99.90
32534;DHT22;18973;48.580;8.912;2024-02-15T07:09:21;7.50;99.90
32534;DHT22;18973;48.580;8.912;2024-02-15T07:11:50;7.60;99.90
32534;DHT22;18973;48.580;8.912;2024-02-15T07:14:15;7.70;99.90
32534;DHT22;18973;48.580;8.912;2024-02-15T07:16:45;7.80;99.90
32534;DHT22;18973;48.580;8.912;2024-02-15T07:19:11;8.00;99.90
32534;DHT22;18973;48.580;8.912;2024-02-15T07:21:37;7.80;99.90
32534;DHT22;18973;48.580;8.912;2024-02-15T07:24:04;8.00;99.90
32534;DHT22;18973;48.580;8.912;2024-02-15T07:26:30;8.10;99.90
32534;DHT22;18973;48.580;8.912;2024-02-15T07:28:56;8.10;99.90
32534;DHT22;18973;48.580;8.912;2024-02-15T07:31:23;8.20;99.90
32534;DHT22;18973;48.580;8.912;2024-02-15T07:33:52;8.20;99.90
32534;DHT22;18973;48.580;8.912;2024-02-15T07:36:22;8.30;99.90
32534;DHT22;18973;48.580;8.912;2024-02-15T07:38:49;8.20;99.90
32534;DHT22;18973;48.580;8.912;2024-02-15T07:41:19;8.30;99.90
32534;DHT22;18973;48.580;8.912;2024-02-15T07:43:51;8.40;99.90
32534;DHT22;18973;48.580;8.912;2024-02-15T07:46:20;8.40;99.90
32534;DHT22;18973;48.580;8.912;2024-02-15T07:48:47;8.40;99.90
32534;DHT22;18973;48.580;8.912;2024-02-15T07:51:16;8.40;99.90
32534;DHT22;18973;48.580;8.912;2024-02-15T07:53:44;8.50;99.90
32534;DHT22;18973;48.580;8.912;2024-02-15T07:56:10;8.60;99.90
32534;DHT22;18973;48.580;8.912;2024-02-15T07:58:43;8.60;99.90
32534;DHT22;18973;48.580;8.912;2024-02-15T08:01:12;8.50;99.90
32534;DHT22;18973;48.580;8.912;2024-02-15T08:03:38;8.80;99.90
32534;DHT22;18973;48.580;8.912;2024-02-15T08:06:10;9.00;99.90
32534;DHT22;18973;48.580;8.912;2024-02-15T08:08:38;9.30;99.90
32534;DHT22;18973;48.580;8.912;2024-02-15T08:11:09;9.50;99.90
32534;DHT22;18973;48.580;8.912;2024-02-15T08:16:19;9.80;99.90
32534;DHT22;18973;48.580;8.912;2024-02-15T08:18:46;9.90;99.90
32534;DHT22;18973;48.580;8.912;2024-02-15T08:21:14;10.00;99.90
32534;DHT22;18973;48.580;8.912;2024-02-15T08:23:40;10.00;99.90
32534;DHT22;18973;48.580;8.912;2024-02-15T08:26:06;10.00;99.90
32534;DHT22;18973;48.580;8.912;2024-02-15T08:28:32;10.10;99.90
32534;DHT22;18973;48.580;8.912;2024-02-15T08:30:58;10.10;99.90
32534;DHT22;18973;48.580;8.912;2024-02-15T08:33:24;10.00;99.90
32534;DHT22;18973;48.580;8.912;2024-02-15T08:35:51;10.00;99.90
32534;DHT22;18973;48.580;8.912;2024-02-15T08:38:18;9.90;99.90
32534;DHT22;18973;48.580;8.912;2024-02-15T08:40:46;10.00;99.90
32534;DHT22;18973;48.580;8.912;2024-02-15T08:43:13;10.10;99.90
32534;DHT22;18973;48.580;8.912;2024-02-15T08:45:39;10.40;99.90
32534;DHT22;18973;48.580;8.912;2024-02-15T08:48:05;10.70;99.90
32534;DHT22;18973;48.580;8.912;2024-02-15T08:50:31;11.00;99.90
32534;DHT22;18973;48.580;8.912;2024-02-15T08:52:56;11.30;99.90
32534;DHT22;18973;48.580;8.912;2024-02-15T08:55:22;11.50;99.90
32534;DHT22;18973;48.580;8.912;2024-02-15T08:57:53;11.90;99.90
32534;DHT22;18973;48.580;8.912;2024-02-15T09:00:20;12.10;99.90
32534;DHT22;18973;48.580;8.912;2024-02-15T09:02:46;12.50;99.90
32534;DHT22;18973;48.580;8.912;2024-02-15T09:05:16;12.80;99.90
32534;DHT22;18973;48.580;8.912;2024-02-15T09:07:45;13.00;99.90
32534;DHT22;18973;48.580;8.912;2024-02-15T09:10:14;13.30;99.90
32534;DHT22;18973;48.580;8.912;2024-02-15T09:12:41;13.50;99.90
32534;DHT22;18973;48.580;8.912;2024-02-15T09:15:09;13.70;99.90
32534;DHT22;18973;48.580;8.912;2024-02-15T09:17:36;13.90;99.90
32534;DHT22;18973;48.580;8.912;2024-02-15T09:20:08;13.90;99.90
32534;DHT22;18973;48.580;8.912;2024-02-15T09:22:43;14.00;99.90
32534;DHT22;18973;48.580;8.912;2024-02-15T09:25:11;13.90;99.90
32534;DHT22;18973;48.580;8.912;2024-02-15T09:27:41;13.90;99.90
32534;DHT22;18973;48.580;8.912;2024-02-15T09:30:08;13.90;99.90
32534;DHT22;18973;48.580;8.912;2024-02-15T09:32:40;14.00;99.90
32534;DHT22;18973;48.580;8.912;2024-02-15T09:35:07;14.00;99.90
32534;DHT22;18973;48.580;8.912;2024-02-15T09:37:36;14.10;99.90
32534;DHT22;18973;48.580;8.912;2024-02-15T09:40:08;14.00;99.90
32534;DHT22;18973;48.580;8.912;2024-02-15T09:42:36;14.30;99.90
32534;DHT22;18973;48.580;8.912;2024-02-15T09:45:02;14.10;99.90
32534;DHT22;18973;48.580;8.912;2024-02-15T09:47:35;14.30;99.90
32534;DHT22;18973;48.580;8.912;2024-02-15T09:50:05;14.00;99.90
32534;DHT22;18973;48.580;8.912;2024-02-15T09:52:33;13.70;99.90
32534;DHT22;18973;48.580;8.912;2024-02-15T09:55:02;13.60;99.90
32534;DHT22;18973;48.580;8.912;2024-02-15T09:57:29;13.90;99.90
32534;DHT22;18973;48.580;8.912;2024-02-15T09:59:58;14.10;99.90
32534;DHT22;18973;48.580;8.912;2024-02-15T10:02:26;14.20;99.90
32534;DHT22;18973;48.580;8.912;2024-02-15T10:04:53;14.20;99.90
32534;DHT22;18973;48.580;8.912;2024-02-15T10:07:23;14.30;99.90
32534;DHT22;18973;48.580;8.912;2024-02-15T10:09:48;14.30;99.90
32534;DHT22;18973;48.580;8.912;2024-02-15T10:12:14;14.30;99.90
32534;DHT22;18973;48.580;8.912;2024-02-15T10:14:48;14.40;99.90
32534;DHT22;18973;48.580;8.912;2024-02-15T10:17:15;14.50;99.90
32534;DHT22;18973;48.580;8.912;2024-02-15T10:19:43;14.40;99.90
32534;DHT22;18973;48.580;8.912;2024-02-15T10:22:10;14.40;99.90
32534;DHT22;18973;48.580;8.912;2024-02-15T10:24:37;14.50;99.90
32534;DHT22;18973;48.580;8.912;2024-02-15T10:27:05;14.60;99.90
32534;DHT22;18973;48.580;8.912;2024-02-15T10:29:36;14.60;99.90
32534;DHT22;18973;48.580;8.912;2024-02-15T10:32:03;14.60;99.90
32534;DHT22;18973;48.580;8.912;2024-02-15T10:34:30;14.80;99.90
32534;DHT22;18973;48.580;8.912;2024-02-15T10:37:13;14.90;99.90
32534;DHT22;18973;48.580;8.912;2024-02-15T10:39:42;15.00;99.90
32534;DHT22;18973;48.580;8.912;2024-02-15T10:42:08;15.00;99.90
32534;DHT22;18973;48.580;8.912;2024-02-15T10:44:37;15.20;99.90
32534;DHT22;18973;48.580;8.912;2024-02-15T10:47:06;15.00;99.90
32534;DHT22;18973;48.580;8.912;2024-02-15T10:49:34;15.20;99.90
32534;DHT22;18973;48.580;8.912;2024-02-15T10:52:01;15.40;99.90
32534;DHT22;18973;48.580;8.912;2024-02-15T10:54:53;15.50;99.90
32534;DHT22;18973;48.580;8.912;2024-02-15T10:57:25;15.70;99.90
32534;DHT22;18973;48.580;8.912;2024-02-15T10:59:55;15.90;99.90
32534;DHT22;18973;48.580;8.912;2024-02-15T11:02:37;15.70;99.90
32534;DHT22;18973;48.580;8.912;2024-02-15T11:05:07;15.90;99.90
32534;DHT22;18973;48.580;8.912;2024-02-15T11:07:37;15.80;99.90
32534;DHT22;18973;48.580;8.912;2024-02-15T11:10:05;16.00;99.90
32534;DHT22;18973;48.580;8.912;2024-02-15T11:12:36;16.30;99.90
32534;DHT22;18973;48.580;8.912;2024-02-15T11:15:03;16.60;99.90
32534;DHT22;18973;48.580;8.912;2024-02-15T11:20:06;16.90;99.90
32534;DHT22;18973;48.580;8.912;2024-02-15T11:22:37;16.90;99.90
32534;DHT22;18973;48.580;8.912;2024-02-15T11:25:06;17.00;99.90
32534;DHT22;18973;48.580;8.912;2024-02-15T11:27:35;17.10;99.90
32534;DHT22;18973;48.580;8.912;2024-02-15T11:30:03;16.90;99.90
32534;DHT22;18973;48.580;8.912;2024-02-15T11:35:11;16.80;99.90
32534;DHT22;18973;48.580;8.912;2024-02-15T11:38:03;16.80;99.90
32534;DHT22;18973;48.580;8.912;2024-02-15T11:43:09;16.90;99.90
32534;DHT22;18973;48.580;8.912;2024-02-15T11:45:36;16.90;99.90
32534;DHT22;18973;48.580;8.912;2024-02-15T11:48:10;16.80;99.90
32534;DHT22;18973;48.580;8.912;2024-02-15T11:50:37;17.00;99.90
32534;DHT22;18973;48.580;8.912;2024-02-15T11:53:05;17.00;99.90
32534;DHT22;18973;48.580;8.912;2024-02-15T11:55:35;17.00;99.90
32534;DHT22;18973;48.580;8.912;2024-02-15T11:58:02;17.00;99.90
32534;DHT22;18973;48.580;8.912;2024-02-15T12:00:33;17.10;99.90
32534;DHT22;18973;48.580;8.912;2024-02-15T12:03:22;17.10;99.90
32534;DHT22;18973;48.580;8.912;2024-02-15T12:06:06;17.10;99.90
32534;DHT22;18973;48.580;8.912;2024-02-15T12:08:52;17.00;99.90
32534;DHT22;18973;48.580;8.912;2024-02-15T12:11:37;17.20;99.60
32534;DHT22;18973;48.580;8.912;2024-02-15T12:14:22;17.20;99.30
32534;DHT22;18973;48.580;8.912;2024-02-15T12:17:07;17.10;99.70
32534;DHT22;18973;48.580;8.912;2024-02-15T12:19:53;17.00;99.90
32534;DHT22;18973;48.580;8.912;2024-02-15T12:22:32;17.00;99.90
32534;DHT22;18973;48.580;8.912;2024-02-15T12:25:00;17.10;99.90
32534;DHT22;18973;48.580;8.912;2024-02-15T12:27:26;17.20;99.90
32534;DHT22;18973;48.580;8.912;2024-02-15T12:29:59;17.10;99.30
32534;DHT22;18973;48.580;8.912;2024-02-15T12:32:26;17.10;99.70
32534;DHT22;18973;48.580;8.912;2024-02-15T12:35:01;17.10;99.60
32534;DHT22;18973;48.580;8.912;2024-02-15T12:37:34;17.10;99.90
32534;DHT22;18973;48.580;8.912;2024-02-15T12:40:13;16.90;99.90
32534;DHT22;18973;48.580;8.912;2024-02-15T12:42:43;16.90;99.90
32534;DHT22;18973;48.580;8.912;2024-02-15T12:45:36;16.90;99.80
32534;DHT22;18973;48.580;8.912;2024-02-15T12:48:04;16.90;99.90
32534;DHT22;18973;48.580;8.912;2024-02-15T12:50:30;17.00;99.90
32534;DHT22;18973;48.580;8.912;2024-02-15T12:52:56;16.90;99.90
32534;DHT22;18973;48.580;8.912;2024-02-15T12:55:28;16.90;99.90
32534;DHT22;18973;48.580;8.912;2024-02-15T12:57:57;16.90;99.90
32534;DHT22;18973;48.580;8.912;2024-02-15T13:00:24;16.90;99.90
32534;DHT22;18973;48.580;8.912;2024-02-15T13:02:54;16.90;99.90
32534;DHT22;18973;48.580;8.912;2024-02-15T13:05:22;16.90;99.90
32534;DHT22;18973;48.580;8.912;2024-02-15T13:07:52;16.80;99.90
32534;DHT22;18973;48.580;8.912;2024-02-15T13:10:21;16.80;99.90
32534;DHT22;18973;48.580;8.912;2024-02-15T13:12:47;16.70;99.90
32534;DHT22;18973;48.580;8.912;2024-02-15T13:15:14;16.90;99.90
32534;DHT22;18973;48.580;8.912;2024-02-15T13:17:44;17.00;99.90
32534;DHT22;18973;48.580;8.912;2024-02-15T13:20:14;17.00;99.90
32534;DHT22;18973;48.580;8.912;2024-02-15T13:22:42;17.00;99.90
32534;DHT22;18973;48.580;8.912;2024-02-15T13:25:09;16.90;99.90
32534;DHT22;18973;48.580;8.912;2024-02-15T13:27:36;16.80;99.90
32534;DHT22;18973;48.580;8.912;2024-02-15T13:30:04;16.80;99.90
32534;DHT22;18973;48.580;8.912;2024-02-15T13:32:37;16.90;99.90
32534;DHT22;18973;48.580;8.912;2024-02-15T13:35:05;16.90;99.90
32534;DHT22;18973;48.580;8.912;2024-02-15T13:37:56;17.00;99.90
32534;DHT22;18973;48.580;8.912;2024-02-15T13:40:26;17.00;99.90
32534;DHT22;18973;48.580;8.912;2024-02-15T13:42:59;16.90;99.90
32534;DHT22;18973;48.580;8.912;2024-02-15T13:45:41;16.80;99.90
32534;DHT22;18973;48.580;8.912;2024-02-15T13:48:08;16.80;99.90
32534;DHT22;18973;48.580;8.912;2024-02-15T13:50:35;16.80;99.90
32534;DHT22;18973;48.580;8.912;2024-02-15T13:53:01;16.80;99.90
32534;DHT22;18973;48.580;8.912;2024-02-15T13:55:28;16.60;99.90
